sensor_id;sensor_type;location;lat;lon;timestamp;P1;durP1;ratioP1;P2;durP2;ratioP2
10586;SDS011;5341;47.606;7.576;2022-09-13T00:00:10;3.92;;;1.65;;
10586;SDS011;5341;47.606;7.576;2022-09-13T00:02:38;2.65;;;1.45;;
10586;SDS011;5341;47.606;7.576;2022-09-13T00:05:08;2.50;;;1.73;;
10586;SDS011;5341;47.606;7.576;2022-09-13T00:07:36;3.15;;;1.70;;
10586;SDS011;5341;47.606;7.576;2022-09-13T00:10:04;3.00;;;1.63;;
10586;SDS011;5341;47.606;7.576;2022-09-13T00:12:34;3.08;;;1.60;;
10586;SDS011;5341;47.606;7.576;2022-09-13T00:15:03;3.17;;;1.90;;
10586;SDS011;5341;47.606;7.576;2022-09-13T00:17:31;3.67;;;1.58;;
10586;SDS011;5341;47.606;7.576;2022-09-13T00:19:59;3.15;;;1.83;;
10586;SDS011;5341;47.606;7.576;2022-09-13T00:22:28;5.22;;;1.80;;
10586;SDS011;5341;47.606;7.576;2022-09-13T00:24:56;3.13;;;1.70;;
10586;SDS011;5341;47.606;7.576;2022-09-13T00:27:24;2.03;;;1.52;;
10586;SDS011;5341;47.606;7.576;2022-09-13T00:29:51;3.30;;;1.70;;
10586;SDS011;5341;47.606;7.576;2022-09-13T00:32:19;3.17;;;1.50;;
10586;SDS011;5341;47.606;7.576;2022-09-13T00:34:47;4.80;;;2.00;;
10586;SDS011;5341;47.606;7.576;2022-09-13T00:37:15;2.30;;;1.80;;
10586;SDS011;5341;47.606;7.576;2022-09-13T00:39:45;4.22;;;1.98;;
10586;SDS011;5341;47.606;7.576;2022-09-13T00:42:15;2.30;;;1.80;;
10586;SDS011;5341;47.606;7.576;2022-09-13T00:44:55;3.65;;;2.08;;
10586;SDS011;5341;47.606;7.576;2022-09-13T00:47:26;2.38;;;1.95;;
10586;SDS011;5341;47.606;7.576;2022-09-13T00:50:01;3.85;;;2.03;;
10586;SDS011;5341;47.606;7.576;2022-09-13T00:52:35;2.80;;;1.70;;
10586;SDS011;5341;47.606;7.576;2022-09-13T00:55:07;3.47;;;1.98;;
10586;SDS011;5341;47.606;7.576;2022-09-13T00:57:39;5.25;;;1.88;;
10586;SDS011;5341;47.606;7.576;2022-09-13T01:00:09;2.95;;;2.00;;
10586;SDS011;5341;47.606;7.576;2022-09-13T01:02:39;3.20;;;2.00;;
10586;SDS011;5341;47.606;7.576;2022-09-13T01:05:11;1.80;;;1.60;;
10586;SDS011;5341;47.606;7.576;2022-09-13T01:07:41;2.50;;;1.80;;
10586;SDS011;5341;47.606;7.576;2022-09-13T01:10:10;5.00;;;1.95;;
10586;SDS011;5341;47.606;7.576;2022-09-13T01:12:40;2.35;;;1.90;;
10586;SDS011;5341;47.606;7.576;2022-09-13T01:15:14;3.22;;;1.65;;
10586;SDS011;5341;47.606;7.576;2022-09-13T01:17:42;2.10;;;1.80;;
10586;SDS011;5341;47.606;7.576;2022-09-13T01:20:11;5.30;;;2.20;;
10586;SDS011;5341;47.606;7.576;2022-09-13T01:29:18;2.67;;;2.15;;
10586;SDS011;5341;47.606;7.576;2022-09-13T01:32:02;2.75;;;2.03;;
10586;SDS011;5341;47.606;7.576;2022-09-13T01:34:42;3.05;;;1.92;;
10586;SDS011;5341;47.606;7.576;2022-09-13T01:37:24;4.05;;;1.92;;
10586;SDS011;5341;47.606;7.576;2022-09-13T01:40:02;3.42;;;2.22;;
10586;SDS011;5341;47.606;7.576;2022-09-13T01:42:38;2.58;;;2.03;;
10586;SDS011;5341;47.606;7.576;2022-09-13T01:45:16;2.42;;;1.85;;
10586;SDS011;5341;47.606;7.576;2022-09-13T01:47:54;2.10;;;1.90;;
10586;SDS011;5341;47.606;7.576;2022-09-13T01:50:27;3.08;;;1.90;;
10586;SDS011;5341;47.606;7.576;2022-09-13T01:53:04;2.40;;;2.05;;
10586;SDS011;5341;47.606;7.576;2022-09-13T01:55:38;2.47;;;1.88;;
10586;SDS011;5341;47.606;7.576;2022-09-13T01:58:14;4.05;;;1.90;;
10586;SDS011;5341;47.606;7.576;2022-09-13T02:00:49;2.58;;;1.90;;
10586;SDS011;5341;47.606;7.576;2022-09-13T02:03:23;2.58;;;1.80;;
10586;SDS011;5341;47.606;7.576;2022-09-13T02:05:58;3.28;;;1.90;;
10586;SDS011;5341;47.606;7.576;2022-09-13T02:08:33;3.40;;;1.90;;
10586;SDS011;5341;47.606;7.576;2022-09-13T02:11:07;2.67;;;1.90;;
10586;SDS011;5341;47.606;7.576;2022-09-13T02:13:37;2.83;;;2.05;;
10586;SDS011;5341;47.606;7.576;2022-09-13T02:16:11;4.78;;;2.20;;
10586;SDS011;5341;47.606;7.576;2022-09-13T02:18:46;2.08;;;1.83;;
10586;SDS011;5341;47.606;7.576;2022-09-13T02:21:19;2.30;;;1.90;;
10586;SDS011;5341;47.606;7.576;2022-09-13T02:23:52;2.40;;;2.10;;
10586;SDS011;5341;47.606;7.576;2022-09-13T02:26:24;2.58;;;2.00;;
10586;SDS011;5341;47.606;7.576;2022-09-13T02:28:55;2.83;;;2.03;;
10586;SDS011;5341;47.606;7.576;2022-09-13T02:31:27;2.40;;;1.88;;
10586;SDS011;5341;47.606;7.576;2022-09-13T02:34:02;2.33;;;2.00;;
10586;SDS011;5341;47.606;7.576;2022-09-13T02:36:34;2.70;;;2.33;;
10586;SDS011;5341;47.606;7.576;2022-09-13T02:39:07;2.45;;;2.10;;
10586;SDS011;5341;47.606;7.576;2022-09-13T02:41:41;2.33;;;1.83;;
10586;SDS011;5341;47.606;7.576;2022-09-13T02:44:17;2.45;;;2.20;;
10586;SDS011;5341;47.606;7.576;2022-09-13T02:46:58;3.28;;;2.20;;
10586;SDS011;5341;47.606;7.576;2022-09-13T02:49:41;5.18;;;2.17;;
10586;SDS011;5341;47.606;7.576;2022-09-13T02:52:18;3.58;;;1.92;;
10586;SDS011;5341;47.606;7.576;2022-09-13T02:54:55;3.60;;;2.25;;
10586;SDS011;5341;47.606;7.576;2022-09-13T02:57:32;2.38;;;1.92;;
10586;SDS011;5341;47.606;7.576;2022-09-13T03:00:05;2.75;;;2.00;;
10586;SDS011;5341;47.606;7.576;2022-09-13T03:02:33;3.55;;;2.20;;
10586;SDS011;5341;47.606;7.576;2022-09-13T03:05:06;3.53;;;2.08;;
10586;SDS011;5341;47.606;7.576;2022-09-13T03:07:34;2.70;;;2.05;;
10586;SDS011;5341;47.606;7.576;2022-09-13T03:10:03;4.28;;;2.25;;
10586;SDS011;5341;47.606;7.576;2022-09-13T03:12:47;3.50;;;2.10;;
10586;SDS011;5341;47.606;7.576;2022-09-13T03:15:32;4.53;;;2.22;;
10586;SDS011;5341;47.606;7.576;2022-09-13T03:18:16;2.65;;;2.05;;
10586;SDS011;5341;47.606;7.576;2022-09-13T03:20:59;2.38;;;2.03;;
10586;SDS011;5341;47.606;7.576;2022-09-13T03:23:35;2.25;;;2.05;;
10586;SDS011;5341;47.606;7.576;2022-09-13T03:26:22;4.15;;;2.10;;
10586;SDS011;5341;47.606;7.576;2022-09-13T03:29:05;5.85;;;2.35;;
10586;SDS011;5341;47.606;7.576;2022-09-13T03:31:51;3.50;;;2.13;;
10586;SDS011;5341;47.606;7.576;2022-09-13T03:34:29;2.65;;;2.13;;
10586;SDS011;5341;47.606;7.576;2022-09-13T03:37:06;3.13;;;2.10;;
10586;SDS011;5341;47.606;7.576;2022-09-13T03:39:42;4.78;;;2.00;;
10586;SDS011;5341;47.606;7.576;2022-09-13T03:42:20;2.55;;;2.30;;
10586;SDS011;5341;47.606;7.576;2022-09-13T03:44:52;2.53;;;2.20;;
10586;SDS011;5341;47.606;7.576;2022-09-13T03:47:24;3.30;;;2.10;;
10586;SDS011;5341;47.606;7.576;2022-09-13T03:49:57;2.80;;;2.20;;
10586;SDS011;5341;47.606;7.576;2022-09-13T03:52:29;2.28;;;2.08;;
10586;SDS011;5341;47.606;7.576;2022-09-13T03:54:57;6.95;;;2.50;;
10586;SDS011;5341;47.606;7.576;2022-09-13T03:57:25;3.63;;;2.15;;
10586;SDS011;5341;47.606;7.576;2022-09-13T03:59:53;4.38;;;2.35;;
10586;SDS011;5341;47.606;7.576;2022-09-13T04:02:23;2.97;;;2.40;;
10586;SDS011;5341;47.606;7.576;2022-09-13T04:04:52;4.22;;;2.10;;
10586;SDS011;5341;47.606;7.576;2022-09-13T04:07:20;3.85;;;2.03;;
10586;SDS011;5341;47.606;7.576;2022-09-13T04:09:51;5.05;;;2.10;;
10586;SDS011;5341;47.606;7.576;2022-09-13T04:12:18;3.45;;;2.30;;
10586;SDS011;5341;47.606;7.576;2022-09-13T04:14:47;4.93;;;1.90;;
10586;SDS011;5341;47.606;7.576;2022-09-13T04:17:14;3.15;;;2.25;;
10586;SDS011;5341;47.606;7.576;2022-09-13T04:19:42;3.17;;;2.00;;
10586;SDS011;5341;47.606;7.576;2022-09-13T04:22:12;3.72;;;2.10;;
10586;SDS011;5341;47.606;7.576;2022-09-13T04:24:39;2.78;;;2.17;;
10586;SDS011;5341;47.606;7.576;2022-09-13T04:27:10;4.85;;;1.95;;
10586;SDS011;5341;47.606;7.576;2022-09-13T04:29:38;6.68;;;2.30;;
10586;SDS011;5341;47.606;7.576;2022-09-13T04:32:06;4.63;;;2.42;;
10586;SDS011;5341;47.606;7.576;2022-09-13T04:34:34;3.00;;;2.13;;
10586;SDS011;5341;47.606;7.576;2022-09-13T04:37:01;3.60;;;2.00;;
10586;SDS011;5341;47.606;7.576;2022-09-13T04:39:29;2.58;;;2.13;;
10586;SDS011;5341;47.606;7.576;2022-09-13T04:41:56;4.38;;;2.10;;
10586;SDS011;5341;47.606;7.576;2022-09-13T04:44:26;2.25;;;2.00;;
10586;SDS011;5341;47.606;7.576;2022-09-13T04:46:54;3.35;;;2.25;;
10586;SDS011;5341;47.606;7.576;2022-09-13T04:49:21;5.43;;;2.33;;
10586;SDS011;5341;47.606;7.576;2022-09-13T04:51:49;3.83;;;2.25;;
10586;SDS011;5341;47.606;7.576;2022-09-13T04:54:17;3.33;;;2.20;;
10586;SDS011;5341;47.606;7.576;2022-09-13T04:56:44;2.55;;;2.05;;
10586;SDS011;5341;47.606;7.576;2022-09-13T04:59:13;2.63;;;2.17;;
10586;SDS011;5341;47.606;7.576;2022-09-13T05:01:42;4.32;;;2.35;;
10586;SDS011;5341;47.606;7.576;2022-09-13T05:04:10;3.10;;;2.08;;
10586;SDS011;5341;47.606;7.576;2022-09-13T05:06:39;3.63;;;2.38;;
10586;SDS011;5341;47.606;7.576;2022-09-13T05:09:09;3.60;;;2.10;;
10586;SDS011;5341;47.606;7.576;2022-09-13T05:11:39;2.75;;;2.13;;
10586;SDS011;5341;47.606;7.576;2022-09-13T05:14:08;2.47;;;1.90;;
10586;SDS011;5341;47.606;7.576;2022-09-13T05:16:37;4.43;;;2.10;;
10586;SDS011;5341;47.606;7.576;2022-09-13T05:19:06;4.60;;;2.10;;
10586;SDS011;5341;47.606;7.576;2022-09-13T05:21:34;2.42;;;2.22;;
10586;SDS011;5341;47.606;7.576;2022-09-13T05:24:02;3.30;;;2.00;;
10586;SDS011;5341;47.606;7.576;2022-09-13T05:26:29;2.53;;;1.92;;
10586;SDS011;5341;47.606;7.576;2022-09-13T05:28:58;2.58;;;1.83;;
10586;SDS011;5341;47.606;7.576;2022-09-13T05:31:26;2.90;;;2.15;;
10586;SDS011;5341;47.606;7.576;2022-09-13T05:33:57;3.17;;;2.10;;
10586;SDS011;5341;47.606;7.576;2022-09-13T05:36:29;2.10;;;1.90;;
10586;SDS011;5341;47.606;7.576;2022-09-13T05:38:57;1.98;;;1.70;;
10586;SDS011;5341;47.606;7.576;2022-09-13T05:41:25;3.85;;;1.90;;
10586;SDS011;5341;47.606;7.576;2022-09-13T05:43:52;4.30;;;2.10;;
10586;SDS011;5341;47.606;7.576;2022-09-13T05:46:21;5.68;;;2.00;;
10586;SDS011;5341;47.606;7.576;2022-09-13T05:48:49;8.40;;;2.47;;
10586;SDS011;5341;47.606;7.576;2022-09-13T05:51:18;7.75;;;2.90;;
10586;SDS011;5341;47.606;7.576;2022-09-13T05:53:48;11.82;;;2.92;;
10586;SDS011;5341;47.606;7.576;2022-09-13T05:56:18;7.05;;;2.65;;
10586;SDS011;5341;47.606;7.576;2022-09-13T05:58:46;7.43;;;2.55;;
10586;SDS011;5341;47.606;7.576;2022-09-13T06:01:16;7.78;;;2.80;;
10586;SDS011;5341;47.606;7.576;2022-09-13T06:03:46;7.32;;;2.47;;
10586;SDS011;5341;47.606;7.576;2022-09-13T06:06:17;8.02;;;2.85;;
10586;SDS011;5341;47.606;7.576;2022-09-13T06:08:44;7.38;;;2.75;;
10586;SDS011;5341;47.606;7.576;2022-09-13T06:11:14;11.43;;;3.25;;
10586;SDS011;5341;47.606;7.576;2022-09-13T06:13:41;11.85;;;2.80;;
10586;SDS011;5341;47.606;7.576;2022-09-13T06:16:09;5.82;;;2.80;;
10586;SDS011;5341;47.606;7.576;2022-09-13T06:18:38;6.35;;;2.58;;
10586;SDS011;5341;47.606;7.576;2022-09-13T06:21:07;10.02;;;2.95;;
10586;SDS011;5341;47.606;7.576;2022-09-13T06:23:36;8.50;;;2.58;;
10586;SDS011;5341;47.606;7.576;2022-09-13T06:26:05;16.83;;;3.20;;
10586;SDS011;5341;47.606;7.576;2022-09-13T06:28:36;9.60;;;3.10;;
10586;SDS011;5341;47.606;7.576;2022-09-13T06:31:06;15.00;;;3.28;;
10586;SDS011;5341;47.606;7.576;2022-09-13T06:33:36;12.70;;;3.30;;
10586;SDS011;5341;47.606;7.576;2022-09-13T06:36:07;5.43;;;2.70;;
10586;SDS011;5341;47.606;7.576;2022-09-13T06:38:37;27.08;;;6.35;;
10586;SDS011;5341;47.606;7.576;2022-09-13T06:41:07;17.55;;;4.70;;
10586;SDS011;5341;47.606;7.576;2022-09-13T06:43:38;13.63;;;4.10;;
10586;SDS011;5341;47.606;7.576;2022-09-13T06:46:07;18.63;;;3.65;;
10586;SDS011;5341;47.606;7.576;2022-09-13T06:48:38;9.13;;;3.55;;
10586;SDS011;5341;47.606;7.576;2022-09-13T06:51:07;9.15;;;3.13;;
10586;SDS011;5341;47.606;7.576;2022-09-13T06:53:37;48.92;;;7.82;;
10586;SDS011;5341;47.606;7.576;2022-09-13T06:56:07;19.23;;;4.88;;
10586;SDS011;5341;47.606;7.576;2022-09-13T06:58:39;18.02;;;3.70;;
10586;SDS011;5341;47.606;7.576;2022-09-13T07:01:09;22.40;;;4.47;;
10586;SDS011;5341;47.606;7.576;2022-09-13T07:03:39;13.02;;;3.85;;
10586;SDS011;5341;47.606;7.576;2022-09-13T07:06:09;11.90;;;3.45;;
10586;SDS011;5341;47.606;7.576;2022-09-13T07:08:38;9.88;;;3.20;;
10586;SDS011;5341;47.606;7.576;2022-09-13T07:11:07;10.55;;;3.28;;
10586;SDS011;5341;47.606;7.576;2022-09-13T07:13:35;5.78;;;2.70;;
10586;SDS011;5341;47.606;7.576;2022-09-13T07:16:05;6.10;;;3.20;;
10586;SDS011;5341;47.606;7.576;2022-09-13T07:18:34;6.03;;;2.70;;
10586;SDS011;5341;47.606;7.576;2022-09-13T07:21:03;7.22;;;2.70;;
10586;SDS011;5341;47.606;7.576;2022-09-13T07:23:32;3.85;;;2.17;;
10586;SDS011;5341;47.606;7.576;2022-09-13T07:26:01;5.55;;;2.85;;
10586;SDS011;5341;47.606;7.576;2022-09-13T07:28:30;5.57;;;2.65;;
10586;SDS011;5341;47.606;7.576;2022-09-13T07:31:05;7.45;;;2.63;;
10586;SDS011;5341;47.606;7.576;2022-09-13T07:33:34;5.30;;;2.40;;
10586;SDS011;5341;47.606;7.576;2022-09-13T07:36:03;5.03;;;2.08;;
10586;SDS011;5341;47.606;7.576;2022-09-13T07:38:32;5.20;;;2.50;;
10586;SDS011;5341;47.606;7.576;2022-09-13T07:41:01;6.43;;;2.30;;
10586;SDS011;5341;47.606;7.576;2022-09-13T07:43:31;3.30;;;2.08;;
10586;SDS011;5341;47.606;7.576;2022-09-13T07:45:59;3.15;;;2.22;;
10586;SDS011;5341;47.606;7.576;2022-09-13T07:48:31;6.03;;;2.50;;
10586;SDS011;5341;47.606;7.576;2022-09-13T07:51:01;3.83;;;2.13;;
10586;SDS011;5341;47.606;7.576;2022-09-13T07:53:31;2.97;;;2.30;;
10586;SDS011;5341;47.606;7.576;2022-09-13T07:56:00;8.65;;;2.50;;
10586;SDS011;5341;47.606;7.576;2022-09-13T07:58:29;2.67;;;1.80;;
10586;SDS011;5341;47.606;7.576;2022-09-13T08:01:00;3.75;;;2.00;;
10586;SDS011;5341;47.606;7.576;2022-09-13T08:03:33;2.83;;;1.98;;
10586;SDS011;5341;47.606;7.576;2022-09-13T08:06:01;2.63;;;2.10;;
10586;SDS011;5341;47.606;7.576;2022-09-13T08:08:30;4.72;;;2.40;;
10586;SDS011;5341;47.606;7.576;2022-09-13T08:10:59;4.78;;;2.03;;
10586;SDS011;5341;47.606;7.576;2022-09-13T08:13:27;3.17;;;2.20;;
10586;SDS011;5341;47.606;7.576;2022-09-13T08:15:59;4.65;;;2.00;;
10586;SDS011;5341;47.606;7.576;2022-09-13T08:18:27;3.10;;;2.13;;
10586;SDS011;5341;47.606;7.576;2022-09-13T08:20:57;2.72;;;2.03;;
10586;SDS011;5341;47.606;7.576;2022-09-13T08:23:25;3.83;;;1.85;;
10586;SDS011;5341;47.606;7.576;2022-09-13T08:25:53;3.05;;;2.22;;
10586;SDS011;5341;47.606;7.576;2022-09-13T08:28:28;3.25;;;1.80;;
10586;SDS011;5341;47.606;7.576;2022-09-13T08:31:01;2.40;;;1.83;;
10586;SDS011;5341;47.606;7.576;2022-09-13T08:33:30;3.05;;;1.98;;
10586;SDS011;5341;47.606;7.576;2022-09-13T08:36:00;3.53;;;2.30;;
10586;SDS011;5341;47.606;7.576;2022-09-13T08:38:28;6.82;;;2.08;;
10586;SDS011;5341;47.606;7.576;2022-09-13T08:40:59;3.30;;;2.30;;
10586;SDS011;5341;47.606;7.576;2022-09-13T08:43:33;3.67;;;2.10;;
10586;SDS011;5341;47.606;7.576;2022-09-13T08:46:11;5.95;;;2.00;;
10586;SDS011;5341;47.606;7.576;2022-09-13T08:48:47;2.92;;;2.08;;
10586;SDS011;5341;47.606;7.576;2022-09-13T08:51:25;6.07;;;2.00;;
10586;SDS011;5341;47.606;7.576;2022-09-13T08:53:57;3.08;;;2.10;;
10586;SDS011;5341;47.606;7.576;2022-09-13T08:56:28;3.90;;;2.40;;
10586;SDS011;5341;47.606;7.576;2022-09-13T08:59:17;2.90;;;2.25;;
10586;SDS011;5341;47.606;7.576;2022-09-13T09:02:04;3.00;;;1.70;;
10586;SDS011;5341;47.606;7.576;2022-09-13T09:05:02;4.10;;;2.05;;
10586;SDS011;5341;47.606;7.576;2022-09-13T09:07:40;3.15;;;2.20;;
10586;SDS011;5341;47.606;7.576;2022-09-13T09:10:13;3.25;;;2.00;;
10586;SDS011;5341;47.606;7.576;2022-09-13T09:12:44;2.47;;;1.90;;
10586;SDS011;5341;47.606;7.576;2022-09-13T09:15:19;1.83;;;1.73;;
10586;SDS011;5341;47.606;7.576;2022-09-13T09:17:52;4.63;;;2.15;;
10586;SDS011;5341;47.606;7.576;2022-09-13T09:20:26;3.03;;;2.03;;
10586;SDS011;5341;47.606;7.576;2022-09-13T09:23:00;3.10;;;2.25;;
10586;SDS011;5341;47.606;7.576;2022-09-13T09:25:32;3.28;;;2.20;;
10586;SDS011;5341;47.606;7.576;2022-09-13T09:28:00;2.75;;;2.05;;
10586;SDS011;5341;47.606;7.576;2022-09-13T09:30:38;3.22;;;1.85;;
10586;SDS011;5341;47.606;7.576;2022-09-13T09:33:18;3.47;;;2.20;;
10586;SDS011;5341;47.606;7.576;2022-09-13T09:35:58;5.32;;;2.28;;
10586;SDS011;5341;47.606;7.576;2022-09-13T09:38:34;4.35;;;2.33;;
10586;SDS011;5341;47.606;7.576;2022-09-13T09:41:05;5.15;;;2.17;;
10586;SDS011;5341;47.606;7.576;2022-09-13T09:43:39;3.72;;;2.30;;
10586;SDS011;5341;47.606;7.576;2022-09-13T09:46:11;4.80;;;2.13;;
10586;SDS011;5341;47.606;7.576;2022-09-13T09:48:43;3.67;;;2.60;;
10586;SDS011;5341;47.606;7.576;2022-09-13T09:51:20;3.78;;;2.30;;
10586;SDS011;5341;47.606;7.576;2022-09-13T09:53:53;6.10;;;2.15;;
10586;SDS011;5341;47.606;7.576;2022-09-13T09:56:28;5.18;;;2.15;;
10586;SDS011;5341;47.606;7.576;2022-09-13T09:58:57;2.72;;;1.70;;
10586;SDS011;5341;47.606;7.576;2022-09-13T10:01:27;6.03;;;2.28;;
10586;SDS011;5341;47.606;7.576;2022-09-13T10:04:00;3.65;;;1.90;;
10586;SDS011;5341;47.606;7.576;2022-09-13T10:06:33;3.47;;;1.90;;
10586;SDS011;5341;47.606;7.576;2022-09-13T10:09:05;4.85;;;1.73;;
10586;SDS011;5341;47.606;7.576;2022-09-13T10:11:40;3.60;;;2.00;;
10586;SDS011;5341;47.606;7.576;2022-09-13T10:17:02;2.05;;;1.73;;
10586;SDS011;5341;47.606;7.576;2022-09-13T10:19:32;2.70;;;1.80;;
10586;SDS011;5341;47.606;7.576;2022-09-13T10:22:02;3.08;;;1.77;;
10586;SDS011;5341;47.606;7.576;2022-09-13T10:24:34;3.13;;;2.10;;
10586;SDS011;5341;47.606;7.576;2022-09-13T10:27:01;2.03;;;1.70;;
10586;SDS011;5341;47.606;7.576;2022-09-13T10:29:31;4.18;;;1.80;;
10586;SDS011;5341;47.606;7.576;2022-09-13T10:31:59;4.55;;;2.10;;
10586;SDS011;5341;47.606;7.576;2022-09-13T10:34:40;5.70;;;2.30;;
10586;SDS011;5341;47.606;7.576;2022-09-13T10:37:12;3.70;;;2.10;;
10586;SDS011;5341;47.606;7.576;2022-09-13T10:40:06;2.75;;;1.80;;
10586;SDS011;5341;47.606;7.576;2022-09-13T10:42:49;2.83;;;1.60;;
10586;SDS011;5341;47.606;7.576;2022-09-13T10:45:20;3.78;;;1.80;;
10586;SDS011;5341;47.606;7.576;2022-09-13T10:47:51;3.92;;;1.70;;
10586;SDS011;5341;47.606;7.576;2022-09-13T10:50:22;2.97;;;1.98;;
10586;SDS011;5341;47.606;7.576;2022-09-13T10:52:52;3.05;;;2.05;;
10586;SDS011;5341;47.606;7.576;2022-09-13T10:55:29;6.57;;;2.30;;
10586;SDS011;5341;47.606;7.576;2022-09-13T10:58:17;3.97;;;2.20;;
10586;SDS011;5341;47.606;7.576;2022-09-13T11:01:00;5.65;;;2.00;;
10586;SDS011;5341;47.606;7.576;2022-09-13T11:03:54;3.03;;;1.83;;
10586;SDS011;5341;47.606;7.576;2022-09-13T11:06:41;3.75;;;1.80;;
10586;SDS011;5341;47.606;7.576;2022-09-13T11:09:17;4.35;;;2.10;;
10586;SDS011;5341;47.606;7.576;2022-09-13T11:11:51;4.05;;;2.03;;
10586;SDS011;5341;47.606;7.576;2022-09-13T11:14:34;3.17;;;2.08;;
10586;SDS011;5341;47.606;7.576;2022-09-13T11:17:15;3.58;;;1.67;;
10586;SDS011;5341;47.606;7.576;2022-09-13T11:22:48;4.05;;;2.10;;
10586;SDS011;5341;47.606;7.576;2022-09-13T11:25:38;4.97;;;1.77;;
10586;SDS011;5341;47.606;7.576;2022-09-13T11:28:18;4.00;;;1.92;;
10586;SDS011;5341;47.606;7.576;2022-09-13T11:30:57;4.47;;;1.88;;
10586;SDS011;5341;47.606;7.576;2022-09-13T11:33:33;5.07;;;2.20;;
10586;SDS011;5341;47.606;7.576;2022-09-13T11:36:21;4.32;;;1.90;;
10586;SDS011;5341;47.606;7.576;2022-09-13T11:39:08;2.88;;;1.70;;
10586;SDS011;5341;47.606;7.576;2022-09-13T11:41:47;8.02;;;1.73;;
10586;SDS011;5341;47.606;7.576;2022-09-13T11:44:33;2.85;;;1.73;;
10586;SDS011;5341;47.606;7.576;2022-09-13T11:47:28;6.25;;;2.10;;
10586;SDS011;5341;47.606;7.576;2022-09-13T11:52:56;5.25;;;1.50;;
10586;SDS011;5341;47.606;7.576;2022-09-13T11:55:37;6.88;;;1.70;;
10586;SDS011;5341;47.606;7.576;2022-09-13T11:58:11;6.63;;;2.00;;
10586;SDS011;5341;47.606;7.576;2022-09-13T12:00:46;3.00;;;1.55;;
10586;SDS011;5341;47.606;7.576;2022-09-13T12:03:21;5.75;;;1.80;;
10586;SDS011;5341;47.606;7.576;2022-09-13T12:05:54;3.63;;;1.55;;
10586;SDS011;5341;47.606;7.576;2022-09-13T12:08:27;8.50;;;2.05;;
10586;SDS011;5341;47.606;7.576;2022-09-13T12:11:00;4.53;;;1.60;;
10586;SDS011;5341;47.606;7.576;2022-09-13T12:13:31;7.07;;;1.90;;
10586;SDS011;5341;47.606;7.576;2022-09-13T12:16:08;7.85;;;1.90;;
10586;SDS011;5341;47.606;7.576;2022-09-13T12:18:39;4.13;;;1.60;;
10586;SDS011;5341;47.606;7.576;2022-09-13T12:21:10;3.08;;;1.60;;
10586;SDS011;5341;47.606;7.576;2022-09-13T12:23:41;3.40;;;1.80;;
10586;SDS011;5341;47.606;7.576;2022-09-13T12:26:18;6.00;;;1.90;;
10586;SDS011;5341;47.606;7.576;2022-09-13T12:28:50;7.65;;;1.80;;
10586;SDS011;5341;47.606;7.576;2022-09-13T12:31:24;7.35;;;2.10;;
10586;SDS011;5341;47.606;7.576;2022-09-13T12:33:54;9.35;;;2.10;;
10586;SDS011;5341;47.606;7.576;2022-09-13T12:36:34;5.43;;;1.75;;
10586;SDS011;5341;47.606;7.576;2022-09-13T12:39:44;6.10;;;1.70;;
10586;SDS011;5341;47.606;7.576;2022-09-13T12:45:39;6.47;;;1.90;;
10586;SDS011;5341;47.606;7.576;2022-09-13T12:48:27;6.70;;;2.00;;
10586;SDS011;5341;47.606;7.576;2022-09-13T12:51:07;10.13;;;2.08;;
10586;SDS011;5341;47.606;7.576;2022-09-13T12:53:50;8.55;;;2.00;;
10586;SDS011;5341;47.606;7.576;2022-09-13T12:56:40;8.43;;;2.60;;
10586;SDS011;5341;47.606;7.576;2022-09-13T13:02:23;4.22;;;1.85;;
10586;SDS011;5341;47.606;7.576;2022-09-13T13:04:56;6.32;;;1.95;;
10586;SDS011;5341;47.606;7.576;2022-09-13T13:07:27;3.72;;;1.88;;
10586;SDS011;5341;47.606;7.576;2022-09-13T13:09:58;4.95;;;1.90;;
10586;SDS011;5341;47.606;7.576;2022-09-13T13:12:28;4.50;;;2.03;;
10586;SDS011;5341;47.606;7.576;2022-09-13T13:14:58;6.57;;;2.40;;
10586;SDS011;5341;47.606;7.576;2022-09-13T13:17:36;4.43;;;1.75;;
10586;SDS011;5341;47.606;7.576;2022-09-13T13:23:29;6.57;;;2.10;;
10586;SDS011;5341;47.606;7.576;2022-09-13T13:26:04;3.97;;;1.92;;
10586;SDS011;5341;47.606;7.576;2022-09-13T13:31:44;3.60;;;1.50;;
10586;SDS011;5341;47.606;7.576;2022-09-13T13:34:42;6.18;;;2.00;;
10586;SDS011;5341;47.606;7.576;2022-09-13T13:37:26;6.65;;;1.85;;
10586;SDS011;5341;47.606;7.576;2022-09-13T13:45:57;2.53;;;1.50;;
10586;SDS011;5341;47.606;7.576;2022-09-13T13:48:48;4.60;;;1.80;;
10586;SDS011;5341;47.606;7.576;2022-09-13T13:51:17;5.38;;;1.95;;
10586;SDS011;5341;47.606;7.576;2022-09-13T13:53:51;7.57;;;1.73;;
10586;SDS011;5341;47.606;7.576;2022-09-13T13:56:32;9.52;;;2.28;;
10586;SDS011;5341;47.606;7.576;2022-09-13T13:59:13;3.60;;;1.75;;
10586;SDS011;5341;47.606;7.576;2022-09-13T14:01:46;6.03;;;1.95;;
10586;SDS011;5341;47.606;7.576;2022-09-13T14:07:23;5.28;;;1.95;;
10586;SDS011;5341;47.606;7.576;2022-09-13T14:10:08;4.13;;;1.70;;
10586;SDS011;5341;47.606;7.576;2022-09-13T14:12:51;5.70;;;1.90;;
10586;SDS011;5341;47.606;7.576;2022-09-13T14:15:40;3.53;;;1.48;;
10586;SDS011;5341;47.606;7.576;2022-09-13T14:18:25;4.80;;;1.90;;
10586;SDS011;5341;47.606;7.576;2022-09-13T14:21:17;5.00;;;1.80;;
10586;SDS011;5341;47.606;7.576;2022-09-13T14:24:06;9.95;;;2.40;;
10586;SDS011;5341;47.606;7.576;2022-09-13T14:26:37;4.95;;;1.85;;
10586;SDS011;5341;47.606;7.576;2022-09-13T14:29:06;7.68;;;1.77;;
10586;SDS011;5341;47.606;7.576;2022-09-13T14:31:35;7.68;;;1.80;;
10586;SDS011;5341;47.606;7.576;2022-09-13T14:34:04;2.90;;;1.52;;
10586;SDS011;5341;47.606;7.576;2022-09-13T14:36:32;3.53;;;1.60;;
10586;SDS011;5341;47.606;7.576;2022-09-13T14:39:00;4.57;;;1.80;;
10586;SDS011;5341;47.606;7.576;2022-09-13T14:41:28;6.88;;;2.00;;
10586;SDS011;5341;47.606;7.576;2022-09-13T14:46:44;4.28;;;1.73;;
10586;SDS011;5341;47.606;7.576;2022-09-13T14:49:19;4.32;;;1.70;;
10586;SDS011;5341;47.606;7.576;2022-09-13T14:51:53;6.15;;;2.22;;
10586;SDS011;5341;47.606;7.576;2022-09-13T14:54:25;3.38;;;2.13;;
10586;SDS011;5341;47.606;7.576;2022-09-13T14:57:00;7.40;;;2.10;;
10586;SDS011;5341;47.606;7.576;2022-09-13T14:59:31;4.60;;;1.90;;
10586;SDS011;5341;47.606;7.576;2022-09-13T15:02:05;4.15;;;2.17;;
10586;SDS011;5341;47.606;7.576;2022-09-13T15:04:40;3.50;;;1.90;;
10586;SDS011;5341;47.606;7.576;2022-09-13T15:07:19;5.18;;;1.83;;
10586;SDS011;5341;47.606;7.576;2022-09-13T15:09:49;6.68;;;2.13;;
10586;SDS011;5341;47.606;7.576;2022-09-13T15:12:21;8.10;;;2.15;;
10586;SDS011;5341;47.606;7.576;2022-09-13T15:18:00;7.10;;;2.00;;
10586;SDS011;5341;47.606;7.576;2022-09-13T15:20:29;6.25;;;1.98;;
10586;SDS011;5341;47.606;7.576;2022-09-13T15:23:13;3.67;;;1.85;;
10586;SDS011;5341;47.606;7.576;2022-09-13T15:25:46;5.65;;;1.92;;
10586;SDS011;5341;47.606;7.576;2022-09-13T15:28:19;5.50;;;1.98;;
10586;SDS011;5341;47.606;7.576;2022-09-13T15:30:49;5.15;;;2.00;;
10586;SDS011;5341;47.606;7.576;2022-09-13T15:33:32;6.07;;;2.15;;
10586;SDS011;5341;47.606;7.576;2022-09-13T15:38:57;7.15;;;2.08;;
10586;SDS011;5341;47.606;7.576;2022-09-13T15:41:27;5.75;;;2.25;;
10586;SDS011;5341;47.606;7.576;2022-09-13T15:43:57;4.53;;;1.80;;
10586;SDS011;5341;47.606;7.576;2022-09-13T15:46:26;4.15;;;2.20;;
10586;SDS011;5341;47.606;7.576;2022-09-13T15:48:55;4.30;;;2.15;;
10586;SDS011;5341;47.606;7.576;2022-09-13T15:51:25;4.82;;;2.50;;
10586;SDS011;5341;47.606;7.576;2022-09-13T15:53:52;7.22;;;2.03;;
10586;SDS011;5341;47.606;7.576;2022-09-13T15:56:21;6.38;;;2.15;;
10586;SDS011;5341;47.606;7.576;2022-09-13T15:58:53;5.68;;;2.13;;
10586;SDS011;5341;47.606;7.576;2022-09-13T16:01:20;4.45;;;2.00;;
10586;SDS011;5341;47.606;7.576;2022-09-13T16:03:48;6.30;;;2.00;;
10586;SDS011;5341;47.606;7.576;2022-09-13T16:06:17;9.20;;;2.17;;
10586;SDS011;5341;47.606;7.576;2022-09-13T16:08:45;4.18;;;1.90;;
10586;SDS011;5341;47.606;7.576;2022-09-13T16:11:12;6.53;;;2.13;;
10586;SDS011;5341;47.606;7.576;2022-09-13T16:13:40;4.43;;;2.10;;
10586;SDS011;5341;47.606;7.576;2022-09-13T16:16:10;7.25;;;2.10;;
10586;SDS011;5341;47.606;7.576;2022-09-13T16:18:39;4.28;;;2.10;;
10586;SDS011;5341;47.606;7.576;2022-09-13T16:21:06;4.97;;;2.30;;